map of SDD home
SDD - Airport
Location
City:  Lubango, Huíla, Angola
Near (Alt.):Sa da Bandeira
ICAO:FNUB
IATA:SDD

Details
Type:Airport (Aerodrome, Airfield)
Use:Public/Civil
Latitude:14°55'29"S (-14.924732)
Longitude:13°34'30"E (13.575022)
Datum:WGS 1984
Elevation:5778 ft (1761 m)
Variation:6.26°W (WMM2015 magnetic declination)
0.18° annual change
Runways:1
Longest:9570 × 148 ft (2917 × 45 m), paved

Time
Time Zone:UTC+1
Local Time:

Weather
METAR:FNUB 121500Z 04005KT 9999 SCT025 30/// Q1022
TAF:FNUB 122300Z 1300/1312 24004KT CAVOK
TEMPO 1308/1312 18009KT 9999 FEW020

Related Locations
Nearby:
Farthest:PHHF: 11815 mi / 19014 km
Tern Island [French Frigate Shoals Airport], HI, US

Find:

   beyond  
but within

Other Information
Maps:
NOTAMs:
Links:
Sources:

  
  • flag of Angola
  

Sectional Chart

Flight Planning
at skyvector.com

Satellite Image

Google Maps Satellite view

 

Copyright © 2004-2018 Karl L. Swartz. All rights reserved.
The Great Circle Mapper name and logo are trademarks of the Great Circle Mapper.
All other trademarks mentioned herein belong to their respective owners.
Please see credits for attibutions and further copyright information.

  Follow gcmap on Facebook Follow gcmap on Twitter Follow gcmap on Google+ GCmap on LinkedIn

hCard Microformat

Geo Microformat